createdAt,value
2018-12-17T00:01:34.525Z,64.71
2018-12-17T00:06:37.745Z,64.78
2018-12-17T00:11:41.110Z,64.32
2018-12-17T00:16:44.401Z,63.91
2018-12-17T00:21:47.590Z,63.69
2018-12-17T00:26:50.825Z,63.87
2018-12-17T00:31:54.179Z,64.25
2018-12-17T00:36:57.378Z,64.10
2018-12-17T00:42:00.582Z,64.48
2018-12-17T00:47:03.811Z,64.59
2018-12-17T00:52:07.244Z,64.63
2018-12-17T00:57:10.434Z,64.81
2018-12-17T01:02:13.698Z,65.16
2018-12-17T01:07:18.969Z,64.88
2018-12-17T01:12:22.353Z,64.99
2018-12-17T01:17:25.572Z,64.97
2018-12-17T01:22:28.766Z,65.30
2018-12-17T01:27:32.080Z,66.02
2018-12-17T01:32:35.811Z,66.50
2018-12-17T01:37:39.025Z,67.17
2018-12-17T01:42:42.200Z,66.98
2018-12-17T01:47:45.421Z,67.16
2018-12-17T01:52:48.678Z,66.65
2018-12-17T01:57:51.951Z,66.99
2018-12-17T02:02:55.217Z,67.37
2018-12-17T02:07:58.433Z,67.77
2018-12-17T02:13:01.597Z,67.81
2018-12-17T02:18:04.836Z,67.68
2018-12-17T02:23:08.021Z,67.72
2018-12-17T02:28:11.185Z,67.90
2018-12-17T02:33:14.502Z,67.54
2018-12-17T02:38:17.826Z,67.51
2018-12-17T02:43:21.010Z,66.95
2018-12-17T02:48:24.213Z,66.72
2018-12-17T02:53:27.490Z,67.09
2018-12-17T02:58:30.667Z,67.37
2018-12-17T03:03:33.866Z,67.23
2018-12-17T03:08:37.100Z,67.67
2018-12-17T03:13:40.270Z,68.26
2018-12-17T03:18:43.501Z,69.21
2018-12-17T03:23:46.737Z,70.36
2018-12-17T03:28:51.965Z,70.52
2018-12-17T03:33:55.105Z,71.14
2018-12-17T03:38:58.309Z,71.16
2018-12-17T03:44:01.481Z,70.99
2018-12-17T03:49:04.729Z,70.66
2018-12-17T03:54:07.915Z,70.31
2018-12-17T03:59:11.107Z,70.62
2018-12-17T04:04:14.316Z,69.99
2018-12-17T04:09:17.552Z,70.14
2018-12-17T04:14:20.736Z,70.43
2018-12-17T04:19:23.946Z,71.26
2018-12-17T04:24:27.312Z,71.25
2018-12-17T04:29:30.492Z,70.48
2018-12-17T04:34:33.690Z,70.34
2018-12-17T04:39:36.990Z,70.66
2018-12-17T04:44:40.198Z,70.49
2018-12-17T04:49:43.369Z,69.87
2018-12-17T04:54:46.609Z,69.62
2018-12-17T04:59:49.837Z,70.08
2018-12-17T05:04:53.109Z,70.54
2018-12-17T05:09:56.433Z,70.19
2018-12-17T05:14:59.709Z,69.41
2018-12-17T05:20:03.048Z,69.20
2018-12-17T05:25:06.914Z,68.29
2018-12-17T05:30:10.305Z,67.96
2018-12-17T05:35:13.553Z,67.98
2018-12-17T05:40:16.721Z,67.87
2018-12-17T05:45:19.937Z,67.85
2018-12-17T05:50:23.133Z,68.00
2018-12-17T05:55:26.337Z,68.17
2018-12-17T06:00:30.177Z,68.30
2018-12-17T06:05:33.357Z,68.55
2018-12-17T06:10:36.576Z,68.42
2018-12-17T06:15:39.797Z,68.29
2018-12-17T06:20:43.242Z,68.06
2018-12-17T06:25:46.485Z,68.55
2018-12-17T06:30:49.674Z,68.46
2018-12-17T06:35:53.002Z,68.19
2018-12-17T06:40:56.187Z,67.99
2018-12-17T06:45:59.358Z,68.53
2018-12-17T06:51:02.673Z,68.51
2018-12-17T06:56:05.918Z,68.52
2018-12-17T07:01:09.166Z,68.27
2018-12-17T07:06:12.387Z,68.46
2018-12-17T07:11:15.626Z,68.52
2018-12-17T07:16:18.858Z,68.80
2018-12-17T07:21:22.021Z,68.51
2018-12-17T07:26:25.250Z,68.47
2018-12-17T07:31:28.545Z,68.48
2018-12-17T07:36:31.738Z,68.46
2018-12-17T07:41:34.917Z,68.55
2018-12-17T07:46:38.113Z,68.50
2018-12-17T07:51:41.270Z,68.48
2018-12-17T07:56:44.509Z,68.42
2018-12-17T08:01:47.664Z,68.53
2018-12-17T08:06:51.105Z,68.20
2018-12-17T08:11:54.304Z,68.35
2018-12-17T08:16:57.801Z,68.21
2018-12-17T08:22:01.019Z,68.07
2018-12-17T08:27:04.273Z,67.83
2018-12-17T08:32:07.575Z,67.49
2018-12-17T08:37:10.757Z,67.35
2018-12-17T08:42:14.029Z,67.35
2018-12-17T08:47:17.211Z,67.26
2018-12-17T08:52:20.393Z,66.90
2018-12-17T08:57:23.568Z,67.00
2018-12-17T09:02:26.813Z,67.01
2018-12-17T09:07:30.065Z,66.23
2018-12-17T09:12:33.262Z,66.63
2018-12-17T09:17:36.430Z,65.63
2018-12-17T09:22:39.725Z,65.82
2018-12-17T09:27:42.949Z,65.88
2018-12-17T09:32:46.125Z,66.14
2018-12-17T09:37:49.305Z,66.38
2018-12-17T09:42:52.465Z,66.61
2018-12-17T09:47:55.638Z,66.73
2018-12-17T09:52:58.806Z,65.97
2018-12-17T09:58:02.001Z,66.00
2018-12-17T10:03:05.265Z,65.48
2018-12-17T10:08:08.441Z,65.61
2018-12-17T10:13:11.677Z,64.72
2018-12-17T10:18:14.855Z,64.59
2018-12-17T10:23:18.046Z,64.51
2018-12-17T10:28:21.225Z,63.91
2018-12-17T10:33:24.394Z,64.04
2018-12-17T10:38:27.558Z,64.74
2018-12-17T10:43:30.907Z,62.26
2018-12-17T10:48:34.173Z,60.96
2018-12-17T10:53:37.334Z,61.01
2018-12-17T10:58:40.546Z,61.62
2018-12-17T11:03:48.293Z,60.52
2018-12-17T11:08:51.650Z,59.95
2018-12-17T11:13:54.941Z,60.00
2018-12-17T11:18:58.997Z,61.80
2018-12-17T11:24:03.285Z,62.58
2018-12-17T11:29:06.561Z,63.40
2018-12-17T11:34:09.783Z,63.21
2018-12-17T11:39:12.948Z,62.68
2018-12-17T11:44:16.187Z,61.49
2018-12-17T11:49:19.485Z,61.64
2018-12-17T11:54:22.850Z,60.70
2018-12-17T11:59:26.130Z,60.40
2018-12-17T12:04:29.303Z,61.13
2018-12-17T12:09:36.839Z,61.81
2018-12-17T12:14:40.053Z,62.01
2018-12-17T12:19:43.324Z,61.71
2018-12-17T12:24:46.497Z,62.68
2018-12-17T12:29:50.085Z,62.61
2018-12-17T12:34:53.249Z,62.51
2018-12-17T12:39:56.454Z,63.05
2018-12-17T12:44:59.639Z,63.27
2018-12-17T12:50:02.887Z,63.11
2018-12-17T12:55:06.258Z,62.93
2018-12-17T13:00:13.245Z,63.17
2018-12-17T13:05:16.514Z,63.45
2018-12-17T13:10:19.673Z,63.80
2018-12-17T13:15:22.834Z,64.15
2018-12-17T13:20:26.013Z,64.05
2018-12-17T13:25:33.554Z,62.75
2018-12-17T13:30:36.809Z,61.43
2018-12-17T13:35:39.978Z,62.26
2018-12-17T13:40:43.166Z,63.27
2018-12-17T13:45:46.358Z,63.66
2018-12-17T13:50:51.713Z,63.99
2018-12-17T13:55:54.887Z,64.12
2018-12-17T14:00:58.062Z,64.50
2018-12-17T14:06:01.229Z,64.87
2018-12-17T14:11:04.554Z,64.83
2018-12-17T14:16:13.529Z,65.47
2018-12-17T14:21:22.194Z,65.62
2018-12-17T14:26:25.370Z,66.00
2018-12-17T14:31:28.893Z,66.35
2018-12-17T14:36:32.326Z,66.50
2018-12-17T14:41:35.562Z,66.41
2018-12-17T14:46:44.314Z,66.71
2018-12-17T14:51:47.557Z,66.77
2018-12-17T14:56:50.820Z,66.84
2018-12-17T15:01:54.000Z,66.76
2018-12-17T15:06:58.146Z,67.10
2018-12-17T15:12:01.419Z,67.14
2018-12-17T15:17:04.669Z,67.72
2018-12-17T15:22:07.834Z,67.87
2018-12-17T15:27:11.017Z,67.96
2018-12-17T15:32:14.309Z,67.84
2018-12-17T15:37:17.637Z,68.01
2018-12-17T15:42:21.956Z,68.36
2018-12-17T15:47:25.483Z,68.34
2018-12-17T15:52:28.664Z,68.50
2018-12-17T15:57:31.865Z,68.45
2018-12-17T16:02:35.028Z,68.43
2018-12-17T16:07:38.230Z,68.64
2018-12-17T16:12:41.429Z,68.96
2018-12-17T16:17:44.619Z,68.83
2018-12-17T16:22:47.804Z,69.12
2018-12-17T16:27:50.981Z,69.32
2018-12-17T16:32:54.225Z,69.14
2018-12-17T16:37:57.410Z,69.13
2018-12-17T16:43:00.613Z,69.13
2018-12-17T16:48:04.006Z,69.37
2018-12-17T16:53:07.238Z,69.48
2018-12-17T16:58:10.494Z,69.77
2018-12-17T17:03:13.699Z,69.97
2018-12-17T17:08:16.894Z,69.93
2018-12-17T17:13:20.081Z,70.02
2018-12-17T17:18:23.272Z,70.01
2018-12-17T17:23:26.466Z,70.51
2018-12-17T17:28:29.638Z,70.36
2018-12-17T17:33:32.851Z,70.42
2018-12-17T17:38:36.067Z,69.86
2018-12-17T17:43:39.437Z,70.18
2018-12-17T17:48:42.600Z,70.84
2018-12-17T17:53:45.773Z,71.95
2018-12-17T17:58:48.978Z,73.29
2018-12-17T18:03:52.154Z,73.98
2018-12-17T18:08:55.333Z,74.34
2018-12-17T18:13:58.497Z,74.89
2018-12-17T18:19:01.737Z,74.46
2018-12-17T18:24:04.927Z,75.12
2018-12-17T18:29:08.098Z,75.04
2018-12-17T18:34:11.257Z,74.55
2018-12-17T18:39:14.656Z,74.63
2018-12-17T18:44:18.015Z,74.30
2018-12-17T18:49:21.266Z,74.02
2018-12-17T18:54:24.490Z,73.52
2018-12-17T18:59:27.667Z,73.51
2018-12-17T19:04:30.833Z,73.39
2018-12-17T19:09:34.085Z,73.12
2018-12-17T19:14:37.271Z,73.00
2018-12-17T19:19:40.451Z,72.94
2018-12-17T19:24:43.638Z,72.58
2018-12-17T19:29:46.821Z,72.59
2018-12-17T19:34:50.085Z,72.63
2018-12-17T19:39:53.251Z,72.69
2018-12-17T19:44:56.414Z,72.56
2018-12-17T19:49:59.689Z,72.37
2018-12-17T19:55:02.866Z,72.59
2018-12-17T20:00:06.979Z,72.31
2018-12-17T20:05:10.414Z,72.02
2018-12-17T20:10:19.138Z,72.70
2018-12-17T20:15:22.434Z,72.32
2018-12-17T20:20:25.769Z,72.46
2018-12-17T20:25:28.969Z,71.61
2018-12-17T20:30:32.154Z,71.41
2018-12-17T20:35:35.381Z,71.38
2018-12-17T20:40:38.541Z,71.37
2018-12-17T20:45:41.787Z,71.52
2018-12-17T20:50:44.980Z,70.91
2018-12-17T20:55:48.158Z,70.94
2018-12-17T21:00:51.409Z,71.18
2018-12-17T21:05:54.655Z,71.01
2018-12-17T21:10:57.869Z,70.88
2018-12-17T21:16:01.065Z,70.75
2018-12-17T21:21:04.237Z,70.75
2018-12-17T21:26:07.446Z,70.59
2018-12-17T21:31:10.616Z,70.73
2018-12-17T21:36:13.805Z,70.80
2018-12-17T21:41:16.987Z,70.56
2018-12-17T21:46:20.277Z,70.63
2018-12-17T21:51:23.482Z,70.50
2018-12-17T21:56:26.655Z,70.48
2018-12-17T22:01:29.863Z,70.32
2018-12-17T22:06:33.093Z,70.12
2018-12-17T22:11:36.565Z,69.87
2018-12-17T22:16:39.777Z,69.81
2018-12-17T22:21:43.050Z,69.58
2018-12-17T22:26:46.242Z,69.76
2018-12-17T22:31:49.551Z,69.68
2018-12-17T22:36:52.783Z,69.37
2018-12-17T22:41:55.973Z,69.31
2018-12-17T22:46:59.157Z,69.40
2018-12-17T22:52:02.365Z,69.09
2018-12-17T22:57:05.699Z,69.42
2018-12-17T23:02:08.983Z,69.19
2018-12-17T23:07:12.419Z,69.22
2018-12-17T23:12:26.899Z,69.43
2018-12-17T23:17:41.349Z,69.19
2018-12-17T23:22:44.589Z,69.10
2018-12-17T23:27:50.048Z,69.21
2018-12-17T23:32:53.361Z,69.42
2018-12-17T23:37:56.644Z,69.36
2018-12-17T23:42:59.833Z,69.46
2018-12-17T23:53:40.490Z,69.36
2018-12-17T23:58:43.818Z,69.00
